Thunder radar more information blitzortung!


avis per Pluja more information rain snow radar


Visita la nostra xarxa de llocs de meteo:

Template documentation
and downloads

And another site



Rain From: 18-10-2018 10:00 Until: 16:59 warning for: Rain Level: Yellow info button

Pagina Historial Weather Underground text

Diari Resum Abril 20, 2016 Unitats:  Mètric    Imperial   Tant
« Previous Dia
SegĂźent Dia »
Diari Setmana Mensual Anual Personalitzada
  Maxima: Minima: Media:
Temperatura: -17.8 °C -11.8 °C -8.2 °C
Punt de rosada: -17.8 °C -17.4 °C -15.6 °C
Humitat: Humidity % 31 % 41 %
Wind Speed: 0 km/h 0 km/h 20.9 km/h
RĂ fegues de vent: 0 km/h - -
Vent:- - East
Pression baro: 0 hPa 34462.7 hPa -
Precipitacions: 0 mm    
Historical Graphs
 
 
Dades de taula per Abril 20, 2016
Temps Temperatura Punt de rosada Pression baro Vent Wind Speed RĂ fegues de vent Humitat Rainfall Rate (Hourly)
-17.8 °C -17.8 °C 0 hPa Calm     Humidity % 0 mm
00:05 -11.3 °C -16.9 °C 34496.6 hPa NE 2.6 km/h 7.7 km/h 50 % 0 mm
00:15 -11.3 °C -16.9 °C 34462.7 hPa NE 7.7 km/h 7.7 km/h 50 % 0 mm
00:25 -11.3 °C -17.1 °C 34462.7 hPa NE 2.6 km/h 7.7 km/h 49 % 0 mm
00:35 -11.4 °C -17.1 °C 34462.7 hPa Calm   2.6 km/h 50 % 0 mm
00:45 -11.5 °C -17.1 °C 34496.6 hPa West 2.6 km/h 5.1 km/h 50 % 0 mm
00:55 -11.6 °C -17.1 °C 34496.6 hPa Calm     50 % 0 mm
01:05 -11.6 °C -17.1 °C 34496.6 hPa Calm   2.6 km/h 50 % 0 mm
01:15 -11.6 °C -17.2 °C 34462.7 hPa NNE 2.6 km/h 2.6 km/h 50 % 0 mm
01:35 -11.7 °C -17.3 °C 34462.7 hPa NNE 2.6 km/h 7.7 km/h 50 % 0 mm
01:45 -11.8 °C -17.4 °C 34462.7 hPa North 2.6 km/h 5.1 km/h 50 % 0 mm
01:55 -11.8 °C -17.3 °C 34462.7 hPa NNE 5.1 km/h 7.7 km/h 50 % 0 mm
02:05 -11.6 °C -17.2 °C 34462.7 hPa NE 7.7 km/h 10.3 km/h 50 % 0 mm
02:25 -11.1 °C -16.9 °C 34462.7 hPa NE 12.9 km/h 15.6 km/h 49 % 0 mm
02:35 -11.1 °C -16.9 °C 34462.7 hPa NE 7.7 km/h 12.9 km/h 49 % 0 mm
02:45 -11.1 °C -16.8 °C 34462.7 hPa ENE 5.1 km/h 7.7 km/h 49 % 0 mm
02:55 -11 °C -16.8 °C 34462.7 hPa ENE 5.1 km/h 7.7 km/h 49 % 0 mm
03:05 -10.8 °C -16.7 °C 34462.7 hPa NE 15.6 km/h 15.6 km/h 48 % 0 mm
03:15 -10.3 °C -16.4 °C 34462.7 hPa NE 7.7 km/h 15.6 km/h 47 % 0 mm
03:25 -10.1 °C -16.4 °C 34462.7 hPa NE 12.9 km/h 15.6 km/h 46 % 0 mm
03:35 -9.9 °C -16.3 °C 34462.7 hPa ENE 7.7 km/h 15.6 km/h 46 % 0 mm
03:45 -9.9 °C -16.1 °C 34462.7 hPa ENE 5.1 km/h 10.3 km/h 47 % 0 mm
03:55 -9.8 °C -16.2 °C 34462.7 hPa ENE 5.1 km/h 10.3 km/h 46 % 0 mm
04:05 -9.6 °C -15.9 °C 34496.6 hPa East 15.6 km/h 23.3 km/h 46 % 0 mm
04:15 -9.4 °C -16 °C 34496.6 hPa East 12.9 km/h 20.8 km/h 45 % 0 mm
04:25 -9.1 °C -15.9 °C 34496.6 hPa East 18.2 km/h 20.8 km/h 44 % 0 mm
04:35 -8.8 °C -15.8 °C 34533.8 hPa ENE 12.9 km/h 33.6 km/h 43 % 0 mm
04:45 -8.7 °C -15.9 °C 34533.8 hPa ENE 18.2 km/h 23.3 km/h 42 % 0 mm
04:55 -8.7 °C -16.1 °C 34533.8 hPa ENE 18.2 km/h 18.2 km/h 41 % 0 mm
05:05 -8.7 °C -16.1 °C 34533.8 hPa ENE 12.9 km/h 18.2 km/h 41 % 0 mm
05:15 -8.6 °C -16 °C 34533.8 hPa ENE 7.7 km/h 15.6 km/h 41 % 0 mm
05:25 -8.5 °C -15.9 °C 34533.8 hPa ENE 7.7 km/h 18.2 km/h 41 % 0 mm
05:35 -8.4 °C -16 °C 34533.8 hPa East 7.7 km/h 15.6 km/h 40 % 0 mm
05:45 -8.2 °C -15.9 °C 34533.8 hPa East 15.6 km/h 25.9 km/h 40 % 0 mm
05:55 -8.2 °C -15.8 °C 34533.8 hPa East 12.9 km/h 15.6 km/h 40 % 0 mm
06:05 -8 °C -15.7 °C 34533.8 hPa ENE 7.7 km/h 12.9 km/h 40 % 0 mm
06:15 -7.8 °C -15.9 °C 34533.8 hPa ENE 12.9 km/h 18.2 km/h 38 % 0 mm
06:25 -7.7 °C -16.2 °C 34533.8 hPa NE 15.6 km/h 28.5 km/h 36 % 0 mm
06:35 -7.6 °C -16.8 °C 34533.8 hPa NE 25.9 km/h 33.6 km/h 33 % 0 mm
06:45 -7.4 °C -16.6 °C 34533.8 hPa NE 23.3 km/h 38.8 km/h 33 % 0 mm
06:55 -7.2 °C -16.5 °C 34533.8 hPa NE 20.8 km/h 28.5 km/h 33 % 0 mm
07:05 -7.1 °C -16.6 °C 34533.8 hPa NE 25.9 km/h 33.6 km/h 32 % 0 mm
07:15 -6.9 °C -16.5 °C 34496.6 hPa NE 23.3 km/h 28.5 km/h 32 % 0 mm
07:25 -6.7 °C -16.3 °C 34496.6 hPa ENE 18.2 km/h 36.2 km/h 32 % 0 mm
07:35 -6.6 °C -16.2 °C 34533.8 hPa ENE 25.9 km/h 31.1 km/h 32 % 0 mm
08:05 -6.6 °C -15.9 °C 34533.8 hPa ENE 23.3 km/h 33.6 km/h 33 % 0 mm
08:15 -6.3 °C -15.4 °C 34533.8 hPa ENE 20.8 km/h 38.8 km/h 34 % 0 mm
12:38 -6.6 °C -16.2 °C 34533.8 hPa NE 26.9 km/h 26.9 km/h 32 % 0 mm
12:43 -6.5 °C -16.3 °C 34533.8 hPa ENE 26.4 km/h 26.4 km/h 31 % 0 mm
12:48 -6.5 °C -16.1 °C 34533.8 hPa ENE 41.7 km/h 41.7 km/h 32 % 0 mm
12:53 -6.6 °C -15.9 °C 34533.8 hPa ENE 32.8 km/h 32.8 km/h 33 % 0 mm
13:25 -6.3 °C -15.2 °C 34533.8 hPa ENE 23.8 km/h 23.8 km/h 35 % 0 mm
13:30 -6.3 °C -15.2 °C 34533.8 hPa NE 56.6 km/h 56.6 km/h 35 % 0 mm
13:35 -6.4 °C -15.3 °C 34533.8 hPa East 29.8 km/h 29.8 km/h 35 % 0 mm
13:40 -6.4 °C -15.3 °C 34533.8 hPa SSE 32.8 km/h 32.8 km/h 35 % 0 mm
13:45 -6.5 °C -15.4 °C 34533.8 hPa East 38.8 km/h 38.8 km/h 35 % 0 mm
13:50 -6.4 °C -15.3 °C 34533.8 hPa NE 29.8 km/h 29.8 km/h 35 % 0 mm
13:55 -6.3 °C -15.2 °C 34533.8 hPa East 31.9 km/h 31.9 km/h 35 % 0 mm
14:00 -6.4 °C -15.3 °C 34533.8 hPa ESE 44.7 km/h 44.7 km/h 35 % 0 mm
14:05 -6.4 °C -15.5 °C 34533.8 hPa ENE 29.8 km/h 29.8 km/h 34 % 0 mm
14:10 -6.2 °C -15.4 °C 34533.8 hPa NNE 29.8 km/h 29.8 km/h 34 % 0 mm
14:15 -6.4 °C -15.5 °C 34496.6 hPa ENE 35.7 km/h 35.7 km/h 34 % 0 mm
14:20 -6.4 °C -15.8 °C 34496.6 hPa NE 44.7 km/h 44.7 km/h 33 % 0 mm
14:25 -6.4 °C -15.7 °C 34496.6 hPa East 29.8 km/h 29.8 km/h 33 % 0 mm
14:30 -6.6 °C -15.9 °C 34533.8 hPa ESE 51 km/h 51 km/h 33 % 0 mm
14:35 -6.6 °C -15.7 °C 34533.8 hPa East 32.8 km/h 32.8 km/h 34 % 0 mm
14:40 -6.5 °C -15.6 °C 34533.8 hPa ESE 29.8 km/h 29.8 km/h 34 % 0 mm
14:45 -6.5 °C -15.4 °C 34533.8 hPa ESE 32.8 km/h 32.8 km/h 35 % 0 mm
14:50 -6.5 °C -15.4 °C 34533.8 hPa NNE 32.8 km/h 32.8 km/h 35 % 0 mm
14:55 -6.6 °C -15.7 °C 34533.8 hPa ENE 26.9 km/h 27.2 km/h 34 % 0 mm
15:00 -6.7 °C -15.5 °C 34533.8 hPa ENE 32.8 km/h 32.8 km/h 35 % 0 mm
15:05 -6.7 °C -15.5 °C 34533.8 hPa ENE 29.8 km/h 29.8 km/h 35 % 0 mm
15:10 -6.7 °C -15.3 °C 34533.8 hPa NNE 32.8 km/h 32.8 km/h 36 % 0 mm
15:15 -6.7 °C -15.5 °C 34533.8 hPa ESE 50.7 km/h 50.7 km/h 35 % 0 mm
15:20 -6.8 °C -15.4 °C 34533.8 hPa ESE 32.8 km/h 32.8 km/h 36 % 0 mm
15:26 -6.7 °C -15.3 °C 34533.8 hPa East 41.7 km/h 41.7 km/h 36 % 0 mm
15:31 -6.8 °C -15.4 °C 34533.8 hPa ESE 47.6 km/h 47.6 km/h 36 % 0 mm
15:36 -6.7 °C -15.5 °C 34533.8 hPa East 32.8 km/h 32.8 km/h 35 % 0 mm
15:41 -6.6 °C -15.4 °C 34533.8 hPa East 38.8 km/h 38.8 km/h 35 % 0 mm
15:46 -6.5 °C -15.4 °C 34533.8 hPa East 38.8 km/h 38.8 km/h 35 % 0 mm
15:51 -6.5 °C -15.4 °C 34533.8 hPa East 26.9 km/h 26.9 km/h 35 % 0 mm
15:56 -6.6 °C -15.7 °C 34533.8 hPa ENE 47.6 km/h 47.6 km/h 34 % 0 mm
16:01 -6.4 °C -15.3 °C 34533.8 hPa East 17.9 km/h 17.9 km/h 35 % 0 mm
16:06 -6.4 °C -15.8 °C 34533.8 hPa ENE 35.7 km/h 35.7 km/h 33 % 0 mm
16:11 -6.4 °C -15.5 °C 34533.8 hPa ENE 32.8 km/h 32.8 km/h 34 % 0 mm
16:16 -6.4 °C -15.6 °C 34533.8 hPa ESE 59.5 km/h 59.5 km/h 34 % 0 mm
16:21 -6.5 °C -15.6 °C 34533.8 hPa ESE 44.7 km/h 44.7 km/h 34 % 0 mm
16:26 -6.6 °C -15.7 °C 34533.8 hPa ESE 41.2 km/h 41.2 km/h 34 % 0 mm
16:31 -6.7 °C -15.8 °C 34533.8 hPa NNE 38.8 km/h 38.8 km/h 34 % 0 mm
16:36 -6.7 °C -16 °C 34533.8 hPa ESE 47.6 km/h 47.6 km/h 33 % 0 mm
16:41 -6.6 °C -15.9 °C 34533.8 hPa ENE 26.9 km/h 26.9 km/h 33 % 0 mm
16:46 -6.6 °C -15.7 °C 34533.8 hPa NE 26.9 km/h 26.9 km/h 34 % 0 mm
16:51 -6.4 °C -15.6 °C 34533.8 hPa ENE 37 km/h 37 km/h 34 % 0 mm
16:56 -6.6 °C -15.7 °C 34533.8 hPa ENE 34.1 km/h 34.1 km/h 34 % 0 mm
17:01 -6.6 °C -15.7 °C 34496.6 hPa ESE 35.7 km/h 35.7 km/h 34 % 0 mm
17:06 -6.7 °C -15.5 °C 34496.6 hPa NE 41.7 km/h 41.7 km/h 35 % 0 mm
17:11 -6.8 °C -15.4 °C 34496.6 hPa ENE 35.7 km/h 35.7 km/h 36 % 0 mm
17:16 -6.9 °C -15.3 °C 34496.6 hPa East 28.2 km/h 28.2 km/h 37 % 0 mm
17:21 -7.1 °C -15.2 °C 34496.6 hPa ENE 26.9 km/h 26.9 km/h 38 % 0 mm
17:26 -7.1 °C -15.3 °C 34496.6 hPa NNW 20.3 km/h 20.3 km/h 38 % 0 mm
17:31 -7.2 °C -15.1 °C 34496.6 hPa NNE 35.7 km/h 35.7 km/h 39 % 0 mm
17:36 -7.2 °C -14.9 °C 34496.6 hPa SSE 44.7 km/h 44.7 km/h 40 % 0 mm
17:41 -7.2 °C -14.9 °C 34496.6 hPa ENE 26.9 km/h 26.9 km/h 40 % 0 mm
17:46 -7.2 °C -14.9 °C 34496.6 hPa ESE 35.7 km/h 35.7 km/h 40 % 0 mm
17:51 -7.3 °C -14.8 °C 34496.6 hPa ESE 35.7 km/h 35.7 km/h 41 % 0 mm
17:56 -7.4 °C -14.9 °C 34496.6 hPa ENE 34.1 km/h 34.1 km/h 41 % 0 mm
18:01 -7.4 °C -14.9 °C 34533.8 hPa NNE 26.9 km/h 26.9 km/h 41 % 0 mm
18:06 -7.4 °C -14.9 °C 34533.8 hPa NNE 35.7 km/h 35.7 km/h 41 % 0 mm
18:11 -7.4 °C -14.8 °C 34533.8 hPa ESE 29.8 km/h 29.8 km/h 42 % 0 mm
18:16 -7.3 °C -14.7 °C 34533.8 hPa NNE 23.8 km/h 23.8 km/h 42 % 0 mm
18:21 -7.3 °C -14.7 °C 34533.8 hPa SSE 20.9 km/h 20.9 km/h 42 % 0 mm
18:26 -7.5 °C -14.8 °C 34533.8 hPa ENE 23.8 km/h 25.4 km/h 42 % 0 mm
18:31 -7.6 °C -14.9 °C 34533.8 hPa ESE 35.7 km/h 35.7 km/h 42 % 0 mm
18:36 -7.6 °C -14.9 °C 34533.8 hPa ENE 32.8 km/h 32.8 km/h 42 % 0 mm
18:41 -7.7 °C -14.9 °C 34533.8 hPa ESE 29.5 km/h 29.5 km/h 42 % 0 mm
18:46 -7.7 °C -14.8 °C 34533.8 hPa ENE 16.1 km/h 16.1 km/h 43 % 0 mm
18:51 -7.7 °C -14.9 °C 34533.8 hPa SE 20.9 km/h 20.9 km/h 42 % 0 mm
18:56 -7.7 °C -15 °C 34533.8 hPa NNE 20.9 km/h 20.9 km/h 42 % 0 mm
18:57 -7.7 °C -15 °C 34533.8 hPa East 20.9 km/h 20.9 km/h 42 % 0 mm
19:02 -7.8 °C -15.1 °C 34533.8 hPa SE 20.9 km/h 20.9 km/h 42 % 0 mm
19:12 -7.8 °C -15.1 °C 34533.8 hPa ENE 29.8 km/h 29.8 km/h 42 % 0 mm
19:17 -7.8 °C -15.1 °C 34533.8 hPa ESE 19.2 km/h 19.2 km/h 42 % 0 mm
19:22 -7.8 °C -15.1 °C 34533.8 hPa ESE 32.8 km/h 32.8 km/h 42 % 0 mm
19:27 -7.8 °C -15.1 °C 34533.8 hPa East 23.8 km/h 23.8 km/h 42 % 0 mm
19:32 -7.9 °C -15.2 °C 34533.8 hPa ESE 9.8 km/h 12.7 km/h 42 % 0 mm
19:37 -7.9 °C -15.2 °C 34533.8 hPa SE 29.8 km/h 29.8 km/h 42 % 0 mm
19:42 -7.9 °C -15.2 °C 34533.8 hPa NNE 15 km/h 15 km/h 42 % 0 mm
19:47 -7.9 °C -15.2 °C 34496.6 hPa East 9 km/h 9.8 km/h 42 % 0 mm
19:52 -8 °C -15.4 °C 34496.6 hPa ENE 23.8 km/h 23.8 km/h 41 % 0 mm
19:57 -8 °C -15.4 °C 34496.6 hPa ENE 15 km/h 15.3 km/h 41 % 0 mm
20:02 -8 °C -15.4 °C 34533.8 hPa ESE 19.6 km/h 19.6 km/h 41 % 0 mm
20:07 -8 °C -15.4 °C 34533.8 hPa ENE 17.9 km/h 17.9 km/h 41 % 0 mm
20:12 -8 °C -15.4 °C 34533.8 hPa ENE 15 km/h 15 km/h 41 % 0 mm
20:17 -8 °C -15.7 °C 34533.8 hPa East 23.8 km/h 23.8 km/h 40 % 0 mm
20:22 -8.1 °C -15.7 °C 34533.8 hPa ENE 23.8 km/h 23.8 km/h 40 % 0 mm
20:27 -8.1 °C -15.7 °C 34533.8 hPa East 15.3 km/h 15.3 km/h 40 % 0 mm
20:32 -8.1 °C -15.7 °C 34533.8 hPa ENE 9.3 km/h 11.1 km/h 40 % 0 mm
20:37 -8 °C -15.9 °C 34533.8 hPa ENE 15 km/h 15 km/h 39 % 0 mm
20:42 -8 °C -15.9 °C 34533.8 hPa ENE 22 km/h 22 km/h 39 % 0 mm
20:47 -8 °C -16.1 °C 34533.8 hPa ENE 22 km/h 22 km/h 38 % 0 mm
20:52 -8.1 °C -15.9 °C 34533.8 hPa NE 20.9 km/h 20.9 km/h 39 % 0 mm
20:57 -8.1 °C -15.9 °C 34533.8 hPa ENE 15 km/h 15 km/h 39 % 0 mm
21:02 -8.2 °C -15.8 °C 34533.8 hPa East 15.3 km/h 15.3 km/h 40 % 0 mm
21:07 -8.3 °C -15.7 °C 34533.8 hPa NE 15 km/h 15 km/h 41 % 0 mm
21:12 -8.3 °C -15.7 °C 34533.8 hPa ENE 15.3 km/h 15.3 km/h 41 % 0 mm
21:17 -8.4 °C -15.7 °C 34533.8 hPa ESE 16.1 km/h 16.1 km/h 42 % 0 mm
21:22 -8.6 °C -15.6 °C 34533.8 hPa ESE 16.1 km/h 16.1 km/h 43 % 0 mm
21:27 -8.7 °C -15.7 °C 34533.8 hPa ESE 16.1 km/h 16.1 km/h 43 % 0 mm
21:32 -8.7 °C -15.7 °C 34533.8 hPa ENE 11.9 km/h 11.9 km/h 43 % 0 mm
21:42 -8.7 °C -15.6 °C 34533.8 hPa NE 9 km/h 15.3 km/h 44 % 0 mm
21:47 -8.8 °C -15.6 °C 34533.8 hPa NE 9 km/h 15.3 km/h 44 % 0 mm
21:52 -8.8 °C -15.4 °C 34533.8 hPa East 6 km/h 6 km/h 45 % 0 mm
21:57 -8.8 °C -15.4 °C 34533.8 hPa ENE 7.6 km/h 7.6 km/h 45 % 0 mm
22:02 -8.8 °C -15.3 °C 34533.8 hPa ENE 7.6 km/h 7.6 km/h 46 % 0 mm
22:07 -8.9 °C -15.5 °C 34533.8 hPa ENE 7.6 km/h 7.6 km/h 45 % 0 mm
22:12 -8.9 °C -15.4 °C 34533.8 hPa ENE 7.6 km/h 7.6 km/h 46 % 0 mm
22:17 -8.9 °C -15.4 °C 34533.8 hPa ENE 7.6 km/h 7.6 km/h 46 % 0 mm
22:22 -9.3 °C -15.1 °C 34533.8 hPa ENE 7.6 km/h 7.6 km/h 50 % 0 mm
22:27 -9.4 °C -14.9 °C 34533.8 hPa SSW 6 km/h 7.6 km/h 52 % 0 mm
22:32 -9.4 °C -14.7 °C 34601.5 hPa SW 4.2 km/h 6.3 km/h 53 % 0 mm
22:37 -9.4 °C -14.9 °C 34601.5 hPa SW 4.2 km/h 6.3 km/h 52 % 0 mm
22:42 -9.4 °C -14.7 °C 34601.5 hPa SW 4.2 km/h 6.3 km/h 53 % 0 mm
22:47 -9.4 °C -14.8 °C 34533.8 hPa SW 4.2 km/h 6.3 km/h 52 % 0 mm
22:52 -9.3 °C -14.7 °C 34533.8 hPa SW 4.2 km/h 6.3 km/h 52 % 0 mm
22:57 -9.3 °C -14.7 °C 34533.8 hPa SW 4.2 km/h 6.3 km/h 52 % 0 mm
23:02 -9.3 °C -14.8 °C 34601.5 hPa ENE 4.2 km/h 7.6 km/h 52 % 0 mm
23:07 -9.3 °C -14.8 °C 34601.5 hPa East 7.6 km/h 7.6 km/h 52 % 0 mm
23:12 -9.4 °C -14.8 °C 34601.5 hPa East 7.6 km/h 7.6 km/h 52 % 0 mm
23:17 -9.4 °C -14.8 °C 34601.5 hPa East 7.6 km/h 7.6 km/h 52 % 0 mm
23:22 -9.4 °C -14.8 °C 34601.5 hPa East 7.6 km/h 7.6 km/h 52 % 0 mm
23:27 -9.4 °C -14.8 °C 34601.5 hPa East 7.6 km/h 7.6 km/h 52 % 0 mm
23:32 -9.4 °C -14.8 °C 34601.5 hPa East 7.6 km/h 7.6 km/h 52 % 0 mm
23:37 -9.4 °C -14.8 °C 34601.5 hPa East 7.6 km/h 7.6 km/h 52 % 0 mm
23:42 -9.4 °C -14.8 °C 34601.5 hPa East 7.6 km/h 7.6 km/h 52 % 0 mm
23:47 -9.4 °C -14.8 °C 34601.5 hPa East 7.6 km/h 7.6 km/h 52 % 0 mm
23:52 -9.4 °C -14.8 °C 34601.5 hPa East 7.6 km/h 7.6 km/h 52 % 0 mm
23:57 -9.4 °C -14.8 °C 34601.5 hPa East 7.6 km/h 7.6 km/h 52 % 0 mm
Meteo Sesrovires
Elogis d' Weather Underground - 1.5 mb

Guio original per  Jim McMurry - jmcmurry@mwt.net Adaptat per a la plantilla per  Wim van der Kuil - Leuven-Template.eu

Trobareu la nostra informacio del temps tambe a:

Weather Underground

AWEKAS